sensor_id;sensor_type;location;lat;lon;timestamp;temperature;humidity
316;DHT22;14128;48.686;9.738;2022-09-09T00:00:12;11.50;1.40
316;DHT22;14128;48.686;9.738;2022-09-09T00:02:42;11.60;1.40
316;DHT22;14128;48.686;9.738;2022-09-09T00:05:19;11.50;1.40
316;DHT22;14128;48.686;9.738;2022-09-09T00:07:50;11.50;1.40
316;DHT22;14128;48.686;9.738;2022-09-09T00:10:23;11.60;1.40
316;DHT22;14128;48.686;9.738;2022-09-09T00:13:00;11.70;1.40
316;DHT22;14128;48.686;9.738;2022-09-09T00:15:32;11.70;1.40
316;DHT22;14128;48.686;9.738;2022-09-09T00:18:07;11.70;1.40
316;DHT22;14128;48.686;9.738;2022-09-09T00:20:43;11.70;1.40
316;DHT22;14128;48.686;9.738;2022-09-09T00:23:14;11.70;1.40
316;DHT22;14128;48.686;9.738;2022-09-09T00:25:46;11.70;1.40
316;DHT22;14128;48.686;9.738;2022-09-09T00:28:20;11.80;1.40
316;DHT22;14128;48.686;9.738;2022-09-09T00:30:47;11.80;1.40
316;DHT22;14128;48.686;9.738;2022-09-09T00:33:17;11.90;1.40
316;DHT22;14128;48.686;9.738;2022-09-09T00:35:51;11.90;1.40
316;DHT22;14128;48.686;9.738;2022-09-09T00:38:20;11.90;1.40
316;DHT22;14128;48.686;9.738;2022-09-09T00:40:51;12.00;1.40
316;DHT22;14128;48.686;9.738;2022-09-09T00:43:26;12.00;1.40
316;DHT22;14128;48.686;9.738;2022-09-09T00:48:50;11.90;1.40
316;DHT22;14128;48.686;9.738;2022-09-09T00:51:28;11.90;1.40
316;DHT22;14128;48.686;9.738;2022-09-09T00:54:10;11.90;1.40
316;DHT22;14128;48.686;9.738;2022-09-09T00:56:46;11.90;1.40
316;DHT22;14128;48.686;9.738;2022-09-09T00:59:22;11.90;1.40
316;DHT22;14128;48.686;9.738;2022-09-09T01:01:51;12.00;1.40
316;DHT22;14128;48.686;9.738;2022-09-09T01:04:26;12.00;1.40
316;DHT22;14128;48.686;9.738;2022-09-09T01:07:03;12.00;1.40
316;DHT22;14128;48.686;9.738;2022-09-09T01:09:45;12.00;1.40
316;DHT22;14128;48.686;9.738;2022-09-09T01:12:16;12.10;1.40
316;DHT22;14128;48.686;9.738;2022-09-09T01:14:47;12.10;1.40
316;DHT22;14128;48.686;9.738;2022-09-09T01:17:19;12.20;1.40
316;DHT22;14128;48.686;9.738;2022-09-09T01:19:59;12.20;1.40
316;DHT22;14128;48.686;9.738;2022-09-09T01:22:35;12.40;1.40
316;DHT22;14128;48.686;9.738;2022-09-09T01:25:20;12.40;1.40
316;DHT22;14128;48.686;9.738;2022-09-09T01:27:52;12.30;1.40
316;DHT22;14128;48.686;9.738;2022-09-09T01:30:21;12.30;1.40
316;DHT22;14128;48.686;9.738;2022-09-09T01:32:51;12.20;1.40
316;DHT22;14128;48.686;9.738;2022-09-09T01:35:37;12.20;1.40
316;DHT22;14128;48.686;9.738;2022-09-09T01:38:06;12.10;1.40
316;DHT22;14128;48.686;9.738;2022-09-09T01:40:33;12.00;1.40
316;DHT22;14128;48.686;9.738;2022-09-09T01:43:01;11.90;1.40
316;DHT22;14128;48.686;9.738;2022-09-09T01:45:29;11.90;1.40
316;DHT22;14128;48.686;9.738;2022-09-09T01:47:56;11.90;1.40
316;DHT22;14128;48.686;9.738;2022-09-09T01:50:23;11.80;1.40
316;DHT22;14128;48.686;9.738;2022-09-09T01:52:53;11.80;1.40
316;DHT22;14128;48.686;9.738;2022-09-09T01:55:29;11.70;1.40
316;DHT22;14128;48.686;9.738;2022-09-09T01:58:04;11.60;1.40
316;DHT22;14128;48.686;9.738;2022-09-09T02:00:41;11.60;1.40
316;DHT22;14128;48.686;9.738;2022-09-09T02:03:18;11.60;1.40
316;DHT22;14128;48.686;9.738;2022-09-09T02:05:51;11.50;1.40
316;DHT22;14128;48.686;9.738;2022-09-09T02:08:23;11.50;1.40
316;DHT22;14128;48.686;9.738;2022-09-09T02:10:55;11.40;1.40
316;DHT22;14128;48.686;9.738;2022-09-09T02:13:25;11.40;1.40
316;DHT22;14128;48.686;9.738;2022-09-09T02:15:55;11.40;1.40
316;DHT22;14128;48.686;9.738;2022-09-09T02:18:25;11.40;1.40
316;DHT22;14128;48.686;9.738;2022-09-09T02:20:54;11.40;1.40
316;DHT22;14128;48.686;9.738;2022-09-09T02:23:23;11.40;1.40
316;DHT22;14128;48.686;9.738;2022-09-09T02:25:51;11.40;1.40
316;DHT22;14128;48.686;9.738;2022-09-09T02:28:21;11.40;1.40
316;DHT22;14128;48.686;9.738;2022-09-09T02:30:52;11.30;1.40
316;DHT22;14128;48.686;9.738;2022-09-09T02:33:24;11.30;1.40
316;DHT22;14128;48.686;9.738;2022-09-09T02:35:52;11.20;1.40
316;DHT22;14128;48.686;9.738;2022-09-09T02:38:24;11.30;1.40
316;DHT22;14128;48.686;9.738;2022-09-09T02:40:53;11.30;1.40
316;DHT22;14128;48.686;9.738;2022-09-09T02:43:20;11.40;1.40
316;DHT22;14128;48.686;9.738;2022-09-09T02:45:53;11.40;1.40
316;DHT22;14128;48.686;9.738;2022-09-09T02:48:31;11.40;1.40
316;DHT22;14128;48.686;9.738;2022-09-09T02:51:05;11.40;1.40
316;DHT22;14128;48.686;9.738;2022-09-09T02:53:41;11.30;1.40
316;DHT22;14128;48.686;9.738;2022-09-09T02:56:14;11.30;1.40
316;DHT22;14128;48.686;9.738;2022-09-09T02:58:42;11.30;1.40
316;DHT22;14128;48.686;9.738;2022-09-09T03:01:11;11.40;1.40
316;DHT22;14128;48.686;9.738;2022-09-09T03:03:38;11.50;1.40
316;DHT22;14128;48.686;9.738;2022-09-09T03:06:07;11.50;1.40
316;DHT22;14128;48.686;9.738;2022-09-09T03:08:33;11.60;1.40
316;DHT22;14128;48.686;9.738;2022-09-09T03:11:01;11.70;1.40
316;DHT22;14128;48.686;9.738;2022-09-09T03:13:28;11.80;1.40
316;DHT22;14128;48.686;9.738;2022-09-09T03:15:54;11.90;1.40
316;DHT22;14128;48.686;9.738;2022-09-09T03:18:23;11.90;1.40
316;DHT22;14128;48.686;9.738;2022-09-09T03:20:50;12.00;1.40
316;DHT22;14128;48.686;9.738;2022-09-09T03:23:19;12.00;1.40
316;DHT22;14128;48.686;9.738;2022-09-09T03:25:47;12.00;1.40
316;DHT22;14128;48.686;9.738;2022-09-09T03:28:15;12.00;1.40
316;DHT22;14128;48.686;9.738;2022-09-09T03:30:41;11.90;1.40
316;DHT22;14128;48.686;9.738;2022-09-09T03:33:08;11.80;1.40
316;DHT22;14128;48.686;9.738;2022-09-09T03:35:36;11.60;1.40
316;DHT22;14128;48.686;9.738;2022-09-09T03:38:03;11.50;1.40
316;DHT22;14128;48.686;9.738;2022-09-09T03:40:30;11.50;1.40
316;DHT22;14128;48.686;9.738;2022-09-09T03:42:57;11.60;1.40
316;DHT22;14128;48.686;9.738;2022-09-09T03:45:25;11.80;1.40
316;DHT22;14128;48.686;9.738;2022-09-09T03:47:51;11.90;1.40
316;DHT22;14128;48.686;9.738;2022-09-09T03:50:18;12.00;1.40
316;DHT22;14128;48.686;9.738;2022-09-09T03:52:46;12.00;1.40
316;DHT22;14128;48.686;9.738;2022-09-09T03:55:14;12.00;1.40
316;DHT22;14128;48.686;9.738;2022-09-09T03:57:40;12.10;1.40
316;DHT22;14128;48.686;9.738;2022-09-09T04:00:08;12.20;1.40
316;DHT22;14128;48.686;9.738;2022-09-09T04:02:35;12.30;1.40
316;DHT22;14128;48.686;9.738;2022-09-09T04:05:02;12.40;1.40
316;DHT22;14128;48.686;9.738;2022-09-09T04:07:29;12.40;1.40
316;DHT22;14128;48.686;9.738;2022-09-09T04:09:57;12.50;1.40
316;DHT22;14128;48.686;9.738;2022-09-09T04:12:24;12.60;1.40
316;DHT22;14128;48.686;9.738;2022-09-09T04:14:50;12.60;1.40
316;DHT22;14128;48.686;9.738;2022-09-09T04:17:17;12.60;1.40
316;DHT22;14128;48.686;9.738;2022-09-09T04:19:44;12.70;1.40
316;DHT22;14128;48.686;9.738;2022-09-09T04:22:12;12.60;1.40
316;DHT22;14128;48.686;9.738;2022-09-09T04:24:38;12.70;1.40
316;DHT22;14128;48.686;9.738;2022-09-09T04:27:06;12.70;1.40
316;DHT22;14128;48.686;9.738;2022-09-09T04:29:33;12.70;1.40
316;DHT22;14128;48.686;9.738;2022-09-09T04:32:00;12.70;1.40
316;DHT22;14128;48.686;9.738;2022-09-09T04:34:27;12.70;1.40
316;DHT22;14128;48.686;9.738;2022-09-09T04:36:55;12.80;1.40
316;DHT22;14128;48.686;9.738;2022-09-09T04:39:22;12.80;1.40
316;DHT22;14128;48.686;9.738;2022-09-09T04:41:49;12.80;1.40
316;DHT22;14128;48.686;9.738;2022-09-09T04:44:17;12.80;1.40
316;DHT22;14128;48.686;9.738;2022-09-09T04:46:44;12.80;1.40
316;DHT22;14128;48.686;9.738;2022-09-09T04:49:11;12.70;1.40
316;DHT22;14128;48.686;9.738;2022-09-09T04:51:38;12.50;1.40
316;DHT22;14128;48.686;9.738;2022-09-09T04:54:04;12.40;1.40
316;DHT22;14128;48.686;9.738;2022-09-09T04:56:32;12.30;1.40
316;DHT22;14128;48.686;9.738;2022-09-09T04:58:59;12.30;1.40
316;DHT22;14128;48.686;9.738;2022-09-09T05:01:29;12.30;1.40
316;DHT22;14128;48.686;9.738;2022-09-09T05:03:57;12.40;1.40
316;DHT22;14128;48.686;9.738;2022-09-09T05:06:24;12.50;1.40
316;DHT22;14128;48.686;9.738;2022-09-09T05:08:52;12.50;1.40
316;DHT22;14128;48.686;9.738;2022-09-09T05:11:20;12.60;1.40
316;DHT22;14128;48.686;9.738;2022-09-09T05:13:48;12.70;1.40
316;DHT22;14128;48.686;9.738;2022-09-09T05:16:16;12.70;1.40
316;DHT22;14128;48.686;9.738;2022-09-09T05:18:44;12.70;1.40
316;DHT22;14128;48.686;9.738;2022-09-09T05:21:12;12.70;1.40
316;DHT22;14128;48.686;9.738;2022-09-09T05:23:40;12.70;1.40
316;DHT22;14128;48.686;9.738;2022-09-09T05:26:09;12.70;1.40
316;DHT22;14128;48.686;9.738;2022-09-09T05:28:38;12.80;1.40
316;DHT22;14128;48.686;9.738;2022-09-09T05:31:06;12.80;1.40
316;DHT22;14128;48.686;9.738;2022-09-09T05:33:35;12.90;1.40
316;DHT22;14128;48.686;9.738;2022-09-09T05:36:05;12.90;1.40
316;DHT22;14128;48.686;9.738;2022-09-09T05:38:34;12.90;1.40
316;DHT22;14128;48.686;9.738;2022-09-09T05:41:02;12.90;1.40
316;DHT22;14128;48.686;9.738;2022-09-09T05:43:29;13.00;1.40
316;DHT22;14128;48.686;9.738;2022-09-09T05:46:02;13.00;1.40
316;DHT22;14128;48.686;9.738;2022-09-09T05:48:30;13.10;1.40
316;DHT22;14128;48.686;9.738;2022-09-09T05:50:57;13.20;1.40
316;DHT22;14128;48.686;9.738;2022-09-09T05:53:26;13.30;1.40
316;DHT22;14128;48.686;9.738;2022-09-09T05:55:59;13.40;1.40
316;DHT22;14128;48.686;9.738;2022-09-09T05:58:27;13.40;1.40
316;DHT22;14128;48.686;9.738;2022-09-09T06:01:00;13.70;1.40
316;DHT22;14128;48.686;9.738;2022-09-09T06:03:27;14.00;1.40
316;DHT22;14128;48.686;9.738;2022-09-09T06:05:57;14.30;1.40
316;DHT22;14128;48.686;9.738;2022-09-09T06:08:26;14.70;1.40
316;DHT22;14128;48.686;9.738;2022-09-09T06:10:53;15.00;1.40
316;DHT22;14128;48.686;9.738;2022-09-09T06:13:21;15.20;1.40
316;DHT22;14128;48.686;9.738;2022-09-09T06:15:50;15.40;1.40
316;DHT22;14128;48.686;9.738;2022-09-09T06:18:17;15.60;1.40
316;DHT22;14128;48.686;9.738;2022-09-09T06:20:54;15.70;1.40
316;DHT22;14128;48.686;9.738;2022-09-09T06:23:20;15.90;1.40
316;DHT22;14128;48.686;9.738;2022-09-09T06:25:49;16.00;1.40
316;DHT22;14128;48.686;9.738;2022-09-09T06:28:16;16.10;1.40
316;DHT22;14128;48.686;9.738;2022-09-09T06:30:43;16.20;1.40
316;DHT22;14128;48.686;9.738;2022-09-09T06:33:10;16.30;1.40
316;DHT22;14128;48.686;9.738;2022-09-09T06:35:37;16.40;1.40
316;DHT22;14128;48.686;9.738;2022-09-09T06:38:03;16.40;1.40
316;DHT22;14128;48.686;9.738;2022-09-09T06:40:31;16.50;1.40
316;DHT22;14128;48.686;9.738;2022-09-09T06:43:00;16.60;1.40
316;DHT22;14128;48.686;9.738;2022-09-09T06:45:28;16.60;1.40
316;DHT22;14128;48.686;9.738;2022-09-09T06:47:55;16.80;1.40
316;DHT22;14128;48.686;9.738;2022-09-09T06:50:22;16.90;1.40
316;DHT22;14128;48.686;9.738;2022-09-09T06:52:49;17.20;1.40
316;DHT22;14128;48.686;9.738;2022-09-09T06:55:17;17.30;1.40
316;DHT22;14128;48.686;9.738;2022-09-09T06:57:45;17.40;1.40
316;DHT22;14128;48.686;9.738;2022-09-09T07:00:13;17.40;1.40
316;DHT22;14128;48.686;9.738;2022-09-09T07:02:40;17.20;1.40
316;DHT22;14128;48.686;9.738;2022-09-09T07:05:08;17.10;1.40
316;DHT22;14128;48.686;9.738;2022-09-09T07:07:35;17.10;1.40
316;DHT22;14128;48.686;9.738;2022-09-09T07:10:03;17.30;1.40
316;DHT22;14128;48.686;9.738;2022-09-09T07:12:30;17.60;1.40
316;DHT22;14128;48.686;9.738;2022-09-09T07:14:57;18.00;1.40
316;DHT22;14128;48.686;9.738;2022-09-09T07:17:25;18.30;1.40
316;DHT22;14128;48.686;9.738;2022-09-09T07:19:53;18.60;1.40
316;DHT22;14128;48.686;9.738;2022-09-09T07:22:20;18.90;1.40
316;DHT22;14128;48.686;9.738;2022-09-09T07:24:48;19.00;1.40
316;DHT22;14128;48.686;9.738;2022-09-09T07:27:15;19.20;1.40
316;DHT22;14128;48.686;9.738;2022-09-09T07:29:42;19.30;1.40
316;DHT22;14128;48.686;9.738;2022-09-09T07:32:08;19.60;1.40
316;DHT22;14128;48.686;9.738;2022-09-09T07:34:36;19.70;1.40
316;DHT22;14128;48.686;9.738;2022-09-09T07:37:03;19.70;1.40
316;DHT22;14128;48.686;9.738;2022-09-09T07:39:30;19.90;1.40
316;DHT22;14128;48.686;9.738;2022-09-09T07:41:57;19.90;1.40
316;DHT22;14128;48.686;9.738;2022-09-09T07:44:24;19.70;1.40
316;DHT22;14128;48.686;9.738;2022-09-09T07:46:52;19.60;1.40
316;DHT22;14128;48.686;9.738;2022-09-09T07:49:19;19.30;1.40
316;DHT22;14128;48.686;9.738;2022-09-09T07:51:47;19.10;1.40
316;DHT22;14128;48.686;9.738;2022-09-09T07:54:16;19.10;1.40
316;DHT22;14128;48.686;9.738;2022-09-09T07:56:45;19.10;1.40
316;DHT22;14128;48.686;9.738;2022-09-09T07:59:13;19.20;1.40
316;DHT22;14128;48.686;9.738;2022-09-09T08:01:41;19.20;1.40
316;DHT22;14128;48.686;9.738;2022-09-09T08:04:10;19.20;1.40
316;DHT22;14128;48.686;9.738;2022-09-09T08:06:43;19.30;1.40
316;DHT22;14128;48.686;9.738;2022-09-09T08:09:13;19.30;1.40
316;DHT22;14128;48.686;9.738;2022-09-09T08:11:41;19.50;1.40
316;DHT22;14128;48.686;9.738;2022-09-09T08:14:08;19.70;1.40
316;DHT22;14128;48.686;9.738;2022-09-09T08:16:38;19.70;1.40
316;DHT22;14128;48.686;9.738;2022-09-09T08:19:06;19.80;1.40
316;DHT22;14128;48.686;9.738;2022-09-09T08:21:35;19.70;1.40
316;DHT22;14128;48.686;9.738;2022-09-09T08:24:02;19.60;1.40
316;DHT22;14128;48.686;9.738;2022-09-09T08:26:33;19.40;1.40
316;DHT22;14128;48.686;9.738;2022-09-09T08:29:01;19.20;1.40
316;DHT22;14128;48.686;9.738;2022-09-09T08:31:30;19.00;1.40
316;DHT22;14128;48.686;9.738;2022-09-09T08:33:58;19.00;1.40
316;DHT22;14128;48.686;9.738;2022-09-09T08:36:27;19.00;1.40
316;DHT22;14128;48.686;9.738;2022-09-09T08:38:56;18.90;1.40
316;DHT22;14128;48.686;9.738;2022-09-09T08:41:41;18.90;1.40
316;DHT22;14128;48.686;9.738;2022-09-09T08:44:14;18.90;1.40
316;DHT22;14128;48.686;9.738;2022-09-09T08:46:49;18.90;1.40
316;DHT22;14128;48.686;9.738;2022-09-09T08:49:38;18.90;1.40
316;DHT22;14128;48.686;9.738;2022-09-09T08:52:15;18.80;1.40
316;DHT22;14128;48.686;9.738;2022-09-09T08:54:44;19.00;1.40
316;DHT22;14128;48.686;9.738;2022-09-09T08:57:16;19.50;1.40
316;DHT22;14128;48.686;9.738;2022-09-09T08:59:45;20.20;1.40
316;DHT22;14128;48.686;9.738;2022-09-09T09:02:16;20.80;1.40
316;DHT22;14128;48.686;9.738;2022-09-09T09:04:56;21.50;1.40
316;DHT22;14128;48.686;9.738;2022-09-09T09:07:33;22.00;1.40
316;DHT22;14128;48.686;9.738;2022-09-09T09:10:08;22.40;1.40
316;DHT22;14128;48.686;9.738;2022-09-09T09:12:42;22.70;1.40
316;DHT22;14128;48.686;9.738;2022-09-09T09:15:16;23.20;1.40
316;DHT22;14128;48.686;9.738;2022-09-09T09:17:43;23.60;1.40
316;DHT22;14128;48.686;9.738;2022-09-09T09:20:13;23.80;1.40
316;DHT22;14128;48.686;9.738;2022-09-09T09:22:47;24.00;1.40
316;DHT22;14128;48.686;9.738;2022-09-09T09:25:18;23.80;1.40
316;DHT22;14128;48.686;9.738;2022-09-09T09:27:52;23.80;1.40
316;DHT22;14128;48.686;9.738;2022-09-09T09:30:26;23.30;1.40
316;DHT22;14128;48.686;9.738;2022-09-09T09:32:55;23.40;1.40
316;DHT22;14128;48.686;9.738;2022-09-09T09:35:24;23.20;1.40
316;DHT22;14128;48.686;9.738;2022-09-09T09:37:51;23.50;1.40
316;DHT22;14128;48.686;9.738;2022-09-09T09:40:20;23.90;1.40
316;DHT22;14128;48.686;9.738;2022-09-09T09:42:54;24.40;1.40
316;DHT22;14128;48.686;9.738;2022-09-09T09:45:28;24.90;1.40
316;DHT22;14128;48.686;9.738;2022-09-09T09:48:00;25.30;1.40
316;DHT22;14128;48.686;9.738;2022-09-09T09:50:29;25.50;1.40
316;DHT22;14128;48.686;9.738;2022-09-09T09:52:58;25.30;1.40
316;DHT22;14128;48.686;9.738;2022-09-09T09:55:26;25.20;1.40
316;DHT22;14128;48.686;9.738;2022-09-09T09:58:02;25.60;1.40
316;DHT22;14128;48.686;9.738;2022-09-09T10:00:29;25.80;1.40
316;DHT22;14128;48.686;9.738;2022-09-09T10:02:56;25.70;1.40
316;DHT22;14128;48.686;9.738;2022-09-09T10:05:24;25.40;1.40
316;DHT22;14128;48.686;9.738;2022-09-09T10:08:02;24.80;1.40
316;DHT22;14128;48.686;9.738;2022-09-09T10:10:40;23.70;1.40
316;DHT22;14128;48.686;9.738;2022-09-09T10:13:16;23.20;1.40
316;DHT22;14128;48.686;9.738;2022-09-09T10:15:52;23.10;1.40
316;DHT22;14128;48.686;9.738;2022-09-09T10:21:34;22.90;1.40
316;DHT22;14128;48.686;9.738;2022-09-09T10:24:39;23.10;1.40
316;DHT22;14128;48.686;9.738;2022-09-09T10:27:16;23.20;1.40
316;DHT22;14128;48.686;9.738;2022-09-09T10:30:04;22.80;1.40
316;DHT22;14128;48.686;9.738;2022-09-09T10:32:41;22.60;1.40
316;DHT22;14128;48.686;9.738;2022-09-09T10:35:17;22.20;1.40
316;DHT22;14128;48.686;9.738;2022-09-09T10:40:49;21.70;1.40
316;DHT22;14128;48.686;9.738;2022-09-09T10:43:37;21.80;1.40
316;DHT22;14128;48.686;9.738;2022-09-09T10:46:12;22.20;1.40
316;DHT22;14128;48.686;9.738;2022-09-09T10:48:50;22.80;1.40
316;DHT22;14128;48.686;9.738;2022-09-09T10:51:30;23.10;1.40
316;DHT22;14128;48.686;9.738;2022-09-09T10:56:51;23.50;1.40
316;DHT22;14128;48.686;9.738;2022-09-09T10:59:25;23.00;1.40
316;DHT22;14128;48.686;9.738;2022-09-09T11:01:58;22.50;1.40
316;DHT22;14128;48.686;9.738;2022-09-09T11:04:31;22.00;1.40
316;DHT22;14128;48.686;9.738;2022-09-09T11:07:05;21.80;1.40
316;DHT22;14128;48.686;9.738;2022-09-09T11:09:37;21.80;1.40
316;DHT22;14128;48.686;9.738;2022-09-09T11:12:10;22.00;1.40
316;DHT22;14128;48.686;9.738;2022-09-09T11:14:43;22.20;1.40
316;DHT22;14128;48.686;9.738;2022-09-09T11:17:15;23.00;1.40
316;DHT22;14128;48.686;9.738;2022-09-09T11:19:44;23.60;1.40
316;DHT22;14128;48.686;9.738;2022-09-09T11:22:18;23.70;1.40
316;DHT22;14128;48.686;9.738;2022-09-09T11:24:52;24.30;1.40
316;DHT22;14128;48.686;9.738;2022-09-09T11:27:23;24.40;1.40
316;DHT22;14128;48.686;9.738;2022-09-09T11:30:17;24.70;1.40
316;DHT22;14128;48.686;9.738;2022-09-09T11:33:03;24.90;1.40
316;DHT22;14128;48.686;9.738;2022-09-09T11:35:42;24.90;1.40
316;DHT22;14128;48.686;9.738;2022-09-09T11:38:26;24.60;1.40
316;DHT22;14128;48.686;9.738;2022-09-09T11:41:01;24.80;1.40
316;DHT22;14128;48.686;9.738;2022-09-09T11:43:32;24.70;1.40
316;DHT22;14128;48.686;9.738;2022-09-09T11:46:01;24.50;1.40
316;DHT22;14128;48.686;9.738;2022-09-09T11:48:33;24.20;1.40
316;DHT22;14128;48.686;9.738;2022-09-09T11:51:04;23.90;1.40
316;DHT22;14128;48.686;9.738;2022-09-09T11:53:33;23.80;1.40
316;DHT22;14128;48.686;9.738;2022-09-09T11:56:09;23.60;1.40
316;DHT22;14128;48.686;9.738;2022-09-09T11:58:43;23.70;1.40
316;DHT22;14128;48.686;9.738;2022-09-09T12:06:56;24.10;1.40
316;DHT22;14128;48.686;9.738;2022-09-09T12:09:38;24.20;1.40
316;DHT22;14128;48.686;9.738;2022-09-09T12:12:18;24.10;1.40
316;DHT22;14128;48.686;9.738;2022-09-09T12:17:42;24.70;1.40
316;DHT22;14128;48.686;9.738;2022-09-09T12:20:14;23.60;1.40
316;DHT22;14128;48.686;9.738;2022-09-09T12:23:03;22.80;1.40
316;DHT22;14128;48.686;9.738;2022-09-09T12:25:36;22.40;1.40
316;DHT22;14128;48.686;9.738;2022-09-09T12:28:11;22.80;1.40
316;DHT22;14128;48.686;9.738;2022-09-09T12:30:45;22.40;1.40
316;DHT22;14128;48.686;9.738;2022-09-09T12:33:18;22.30;1.40
316;DHT22;14128;48.686;9.738;2022-09-09T12:35:52;22.10;1.40
316;DHT22;14128;48.686;9.738;2022-09-09T12:38:27;22.00;1.40
316;DHT22;14128;48.686;9.738;2022-09-09T12:40:57;22.00;1.40
316;DHT22;14128;48.686;9.738;2022-09-09T12:43:26;22.20;1.40
316;DHT22;14128;48.686;9.738;2022-09-09T12:45:56;22.50;1.40
316;DHT22;14128;48.686;9.738;2022-09-09T12:48:29;22.70;1.40
316;DHT22;14128;48.686;9.738;2022-09-09T12:50:59;22.90;1.40
316;DHT22;14128;48.686;9.738;2022-09-09T12:53:29;23.00;1.40
316;DHT22;14128;48.686;9.738;2022-09-09T12:55:59;23.20;1.40
316;DHT22;14128;48.686;9.738;2022-09-09T12:58:26;23.30;1.40
316;DHT22;14128;48.686;9.738;2022-09-09T13:00:58;22.90;1.40
316;DHT22;14128;48.686;9.738;2022-09-09T13:03:26;22.60;1.40
316;DHT22;14128;48.686;9.738;2022-09-09T13:05:54;22.60;1.40
316;DHT22;14128;48.686;9.738;2022-09-09T13:08:27;22.70;1.40
316;DHT22;14128;48.686;9.738;2022-09-09T13:10:56;22.60;1.40
316;DHT22;14128;48.686;9.738;2022-09-09T13:13:27;22.80;1.40
316;DHT22;14128;48.686;9.738;2022-09-09T13:15:58;23.00;1.40
316;DHT22;14128;48.686;9.738;2022-09-09T13:18:28;23.10;1.40
316;DHT22;14128;48.686;9.738;2022-09-09T13:20:55;23.50;1.40
316;DHT22;14128;48.686;9.738;2022-09-09T13:23:25;24.00;1.40
316;DHT22;14128;48.686;9.738;2022-09-09T13:25:55;24.40;1.40
316;DHT22;14128;48.686;9.738;2022-09-09T13:28:25;24.60;1.40
316;DHT22;14128;48.686;9.738;2022-09-09T13:30:56;24.80;1.40
316;DHT22;14128;48.686;9.738;2022-09-09T13:33:30;25.20;1.40
316;DHT22;14128;48.686;9.738;2022-09-09T13:36:00;25.20;1.40
316;DHT22;14128;48.686;9.738;2022-09-09T13:38:32;25.40;1.40
316;DHT22;14128;48.686;9.738;2022-09-09T13:41:02;25.80;1.40
316;DHT22;14128;48.686;9.738;2022-09-09T13:43:31;25.80;1.40
316;DHT22;14128;48.686;9.738;2022-09-09T13:46:02;25.80;1.40
316;DHT22;14128;48.686;9.738;2022-09-09T13:48:29;26.20;1.40
316;DHT22;14128;48.686;9.738;2022-09-09T13:50:59;26.80;1.40
316;DHT22;14128;48.686;9.738;2022-09-09T13:53:26;27.00;1.40
316;DHT22;14128;48.686;9.738;2022-09-09T13:55:54;28.20;1.40
316;DHT22;14128;48.686;9.738;2022-09-09T13:58:24;29.10;1.40
316;DHT22;14128;48.686;9.738;2022-09-09T14:00:52;30.30;1.40
316;DHT22;14128;48.686;9.738;2022-09-09T14:03:19;30.20;1.40
316;DHT22;14128;48.686;9.738;2022-09-09T14:05:46;29.50;1.40
316;DHT22;14128;48.686;9.738;2022-09-09T14:08:22;28.10;1.40
316;DHT22;14128;48.686;9.738;2022-09-09T14:10:50;28.00;1.40
316;DHT22;14128;48.686;9.738;2022-09-09T14:13:18;29.90;1.40
316;DHT22;14128;48.686;9.738;2022-09-09T14:15:48;30.90;1.40
316;DHT22;14128;48.686;9.738;2022-09-09T14:18:15;30.40;1.40
316;DHT22;14128;48.686;9.738;2022-09-09T14:20:42;30.40;1.40
316;DHT22;14128;48.686;9.738;2022-09-09T14:23:11;30.30;1.40
316;DHT22;14128;48.686;9.738;2022-09-09T14:25:42;30.10;1.40
316;DHT22;14128;48.686;9.738;2022-09-09T14:28:10;30.10;1.40
316;DHT22;14128;48.686;9.738;2022-09-09T14:30:38;30.40;1.40
316;DHT22;14128;48.686;9.738;2022-09-09T14:33:10;29.60;1.40
316;DHT22;14128;48.686;9.738;2022-09-09T14:35:37;29.00;1.40
316;DHT22;14128;48.686;9.738;2022-09-09T14:38:08;29.60;1.40
316;DHT22;14128;48.686;9.738;2022-09-09T14:40:35;30.20;1.40
316;DHT22;14128;48.686;9.738;2022-09-09T14:43:03;29.60;1.40
316;DHT22;14128;48.686;9.738;2022-09-09T14:45:31;28.50;1.40
316;DHT22;14128;48.686;9.738;2022-09-09T14:47:58;28.50;1.40
316;DHT22;14128;48.686;9.738;2022-09-09T14:50:26;28.20;1.40
316;DHT22;14128;48.686;9.738;2022-09-09T14:52:53;27.40;1.40
316;DHT22;14128;48.686;9.738;2022-09-09T14:55:20;26.50;1.40
316;DHT22;14128;48.686;9.738;2022-09-09T14:57:47;25.60;1.40
316;DHT22;14128;48.686;9.738;2022-09-09T15:00:14;27.90;1.40
316;DHT22;14128;48.686;9.738;2022-09-09T15:02:41;28.10;1.40
316;DHT22;14128;48.686;9.738;2022-09-09T15:05:08;29.10;1.40
316;DHT22;14128;48.686;9.738;2022-09-09T15:07:37;28.20;1.40
316;DHT22;14128;48.686;9.738;2022-09-09T15:10:05;30.00;1.40
316;DHT22;14128;48.686;9.738;2022-09-09T15:12:32;29.30;1.40
316;DHT22;14128;48.686;9.738;2022-09-09T15:15:01;28.00;1.40
316;DHT22;14128;48.686;9.738;2022-09-09T15:17:27;27.80;1.40
316;DHT22;14128;48.686;9.738;2022-09-09T15:19:54;29.70;1.40
316;DHT22;14128;48.686;9.738;2022-09-09T15:22:21;30.20;1.40
316;DHT22;14128;48.686;9.738;2022-09-09T15:24:51;30.10;1.40
316;DHT22;14128;48.686;9.738;2022-09-09T15:27:18;27.80;1.40
316;DHT22;14128;48.686;9.738;2022-09-09T15:29:44;25.70;1.40
316;DHT22;14128;48.686;9.738;2022-09-09T15:32:12;24.90;1.40
316;DHT22;14128;48.686;9.738;2022-09-09T15:34:39;27.70;1.40
316;DHT22;14128;48.686;9.738;2022-09-09T15:37:06;29.40;1.40
316;DHT22;14128;48.686;9.738;2022-09-09T15:39:36;30.60;1.40
316;DHT22;14128;48.686;9.738;2022-09-09T15:42:04;28.30;1.40
316;DHT22;14128;48.686;9.738;2022-09-09T15:44:38;29.90;1.40
316;DHT22;14128;48.686;9.738;2022-09-09T15:47:05;30.30;1.40
316;DHT22;14128;48.686;9.738;2022-09-09T15:49:32;30.90;1.40
316;DHT22;14128;48.686;9.738;2022-09-09T15:52:00;29.60;1.40
316;DHT22;14128;48.686;9.738;2022-09-09T15:54:32;27.10;1.40
316;DHT22;14128;48.686;9.738;2022-09-09T15:57:01;25.00;1.40
316;DHT22;14128;48.686;9.738;2022-09-09T15:59:31;23.80;1.40
316;DHT22;14128;48.686;9.738;2022-09-09T16:01:59;23.10;1.40
316;DHT22;14128;48.686;9.738;2022-09-09T16:04:27;22.70;1.40
316;DHT22;14128;48.686;9.738;2022-09-09T16:06:56;22.30;1.40
316;DHT22;14128;48.686;9.738;2022-09-09T16:09:25;22.00;1.40
316;DHT22;14128;48.686;9.738;2022-09-09T16:11:52;21.70;1.40
316;DHT22;14128;48.686;9.738;2022-09-09T16:14:19;22.00;1.40
316;DHT22;14128;48.686;9.738;2022-09-09T16:16:47;21.90;1.40
316;DHT22;14128;48.686;9.738;2022-09-09T16:19:14;22.00;1.40
316;DHT22;14128;48.686;9.738;2022-09-09T16:21:43;21.80;1.40
316;DHT22;14128;48.686;9.738;2022-09-09T16:24:11;21.50;1.40
316;DHT22;14128;48.686;9.738;2022-09-09T16:26:41;21.10;1.40
316;DHT22;14128;48.686;9.738;2022-09-09T16:29:08;20.70;1.40
316;DHT22;14128;48.686;9.738;2022-09-09T16:31:35;20.40;1.40
316;DHT22;14128;48.686;9.738;2022-09-09T16:34:03;20.30;1.40
316;DHT22;14128;48.686;9.738;2022-09-09T16:36:34;20.20;1.40
316;DHT22;14128;48.686;9.738;2022-09-09T16:39:03;20.20;1.40
316;DHT22;14128;48.686;9.738;2022-09-09T16:41:30;20.10;1.40
316;DHT22;14128;48.686;9.738;2022-09-09T16:43:58;20.00;1.40
316;DHT22;14128;48.686;9.738;2022-09-09T16:46:26;20.00;1.40
316;DHT22;14128;48.686;9.738;2022-09-09T16:48:56;20.00;1.40
316;DHT22;14128;48.686;9.738;2022-09-09T16:51:26;20.00;1.40
316;DHT22;14128;48.686;9.738;2022-09-09T16:53:54;20.00;1.40
316;DHT22;14128;48.686;9.738;2022-09-09T16:56:23;20.10;1.40